Pittston, PA (18640)

9:49 PM EDT on May 28, 2016 (GMT -0400)
Duryea | | Change Station

Elev 50 ft 41.35 °N, 75.76 °W | Updated 13 minutes ago

Clear
Clear
76.6 °F
Feels Like 78 °F
N
0.0
Wind Variable Wind from South

Today
High -- | Low -- °F
--% Chance of Precip.
Yesterday
High -- | Low -- °F
Precip. -- in
Pressure 30.09 in
Visibility 9.0 miles
Clouds Clear
Heat Index 78 °F
Dew Point 68 °F
Humidity 76%
Rainfall in
Snow Depth Not available.
5:34 AM 8:27 PM
Waning Gibbous, 55% visible
METAR KAVP 290054Z VRB03KT 9SM CLR 27/19 A3012 RMK AO2 SLP189 T02720194
Pressure 30.09 in
Visibility 9.0 miles
Clouds Clear
Heat Index 78 °F
Dew Point 68 °F
Humidity 76%
Rainfall in
Snow Depth Not available.
5:34 AM 8:27 PM
Waning Gibbous, 55% visible
METAR KAVP 290054Z VRB03KT 9SM CLR 27/19 A3012 RMK AO2 SLP189 T02720194

10-Day Weather Forecast

Almanac

Astronomy

May. 28, 2016 Rise Set
Actual Time
Civil Twilight
Nautical Twilight
Astronomical Twilight
Moon
Length of Visible Light
Length of Day
Tomorrow will be .
, % of the Moon is Illuminated

Today's Extremes

State Highs State Lows

Community

WunderPhotos

Upload Photos

1,914,293 photos uploaded!

WunderBlog® & News

Nearby

Air Quality

  Air Quality AQ Index Pollutant
Not available.

Snow Depth

Station Depth Elevation

Earthquake Activity

City Distance Mag. Time & Date
Minimum magnitude displayed is 2.5.

Coastal Water Temperatures

Place Temperature

Stations

Nearby Weather Stations

Station Location Temp. Windchill Dew Point Humidity Wind Precip. Elev Updated Type
                   

Watches & Warnings

There are currently no watches in effect.